createdAt,value
2023-02-12T00:00:10.586Z,6.79
2023-02-12T00:00:21.608Z,6.76
2023-02-12T00:00:32.568Z,6.71
2023-02-12T00:00:43.337Z,6.76
2023-02-12T00:00:54.405Z,6.76
2023-02-12T00:01:05.367Z,6.76
2023-02-12T00:01:16.148Z,6.81
2023-02-12T00:01:27.186Z,6.76
2023-02-12T00:01:38.162Z,6.77
2023-02-12T00:01:48.915Z,6.76
2023-02-12T00:02:00.008Z,6.79
2023-02-12T00:02:11.077Z,6.72
2023-02-12T00:02:21.906Z,6.77
2023-02-12T00:02:32.982Z,6.71
2023-02-12T00:02:44.097Z,6.77
2023-02-12T00:02:54.844Z,6.73
2023-02-12T00:03:05.891Z,6.73
2023-02-12T00:03:16.905Z,6.73
2023-02-12T00:03:27.691Z,6.71
2023-02-12T00:03:38.787Z,6.76
2023-02-12T00:03:49.878Z,6.73
2023-02-12T00:04:00.644Z,6.72
2023-02-12T00:04:11.663Z,6.72
2023-02-12T00:04:22.629Z,6.71
2023-02-12T00:04:33.393Z,6.72
2023-02-12T00:04:44.441Z,6.69
2023-02-12T00:04:55.405Z,6.68
2023-02-12T00:05:06.174Z,6.71
2023-02-12T00:05:17.229Z,6.73
2023-02-12T00:05:28.178Z,6.71
2023-02-12T00:05:38.960Z,6.71
2023-02-12T00:05:50.021Z,6.71
2023-02-12T00:06:00.976Z,6.68
2023-02-12T00:06:13.571Z,6.76
2023-02-12T00:06:22.688Z,6.71
2023-02-12T00:06:33.644Z,6.69
2023-02-12T00:06:44.411Z,6.68
2023-02-12T00:06:55.453Z,6.68
2023-02-12T00:07:06.436Z,6.66
2023-02-12T00:07:17.197Z,6.72
2023-02-12T00:07:28.255Z,6.71
2023-02-12T00:07:39.228Z,6.71
2023-02-12T00:07:49.982Z,6.76
2023-02-12T00:08:01.060Z,6.68
2023-02-12T00:08:12.092Z,6.69
2023-02-12T00:08:22.844Z,6.68
2023-02-12T00:08:33.923Z,6.63
2023-02-12T00:08:44.870Z,6.65
2023-02-12T00:08:55.651Z,6.68
2023-02-12T00:09:06.707Z,6.71
2023-02-12T00:09:17.668Z,6.66
2023-02-12T00:09:28.429Z,6.66
2023-02-12T00:09:39.476Z,6.65
2023-02-12T00:09:50.440Z,6.68
2023-02-12T00:10:01.205Z,6.68
2023-02-12T00:10:12.284Z,6.69
2023-02-12T00:10:23.251Z,6.66
2023-02-12T00:10:34.008Z,6.71
2023-02-12T00:10:45.070Z,6.63
2023-02-12T00:10:56.043Z,6.62
2023-02-12T00:11:06.805Z,6.66
2023-02-12T00:11:17.855Z,6.66
2023-02-12T00:11:28.836Z,6.66
2023-02-12T00:11:39.605Z,6.68
2023-02-12T00:11:50.641Z,6.68
2023-02-12T00:12:01.602Z,6.66
2023-02-12T00:12:12.381Z,6.62
2023-02-12T00:12:23.431Z,6.68
2023-02-12T00:12:34.404Z,6.65
2023-02-12T00:12:45.173Z,6.68
2023-02-12T00:12:56.222Z,6.68
2023-02-12T00:13:07.194Z,6.62
2023-02-12T00:13:17.960Z,6.63
2023-02-12T00:13:29.009Z,6.61
2023-02-12T00:13:39.990Z,6.62
2023-02-12T00:13:50.766Z,6.66
2023-02-12T00:14:01.804Z,6.59
2023-02-12T00:14:12.770Z,6.66
2023-02-12T00:14:23.538Z,6.65
2023-02-12T00:14:34.581Z,6.66
2023-02-12T00:14:45.541Z,6.66
2023-02-12T00:14:56.326Z,6.65
2023-02-12T00:15:07.373Z,6.63
2023-02-12T00:15:18.333Z,6.62
2023-02-12T00:15:29.124Z,6.62
2023-02-12T00:15:40.197Z,6.65
2023-02-12T00:15:51.187Z,6.62
2023-02-12T00:16:01.941Z,6.65
2023-02-12T00:16:13.019Z,6.61
2023-02-12T00:16:23.952Z,6.63
2023-02-12T00:16:34.732Z,6.65
2023-02-12T00:16:45.780Z,6.63
2023-02-12T00:16:56.739Z,6.61
2023-02-12T00:17:07.499Z,6.63
2023-02-12T00:17:18.554Z,6.66
2023-02-12T00:17:29.519Z,6.65
2023-02-12T00:17:40.292Z,6.61
2023-02-12T00:17:51.336Z,6.63
2023-02-12T00:18:02.298Z,6.62
2023-02-12T00:18:13.078Z,6.66
2023-02-12T00:18:24.129Z,6.63
2023-02-12T00:18:35.090Z,6.63
2023-02-12T00:18:45.877Z,6.65
2023-02-12T00:18:56.954Z,6.65
2023-02-12T00:19:07.917Z,6.62
2023-02-12T00:19:18.686Z,6.63
2023-02-12T00:19:29.744Z,6.58
2023-02-12T00:19:40.732Z,6.58
2023-02-12T00:19:51.502Z,6.62
2023-02-12T00:20:02.580Z,6.62
2023-02-12T00:20:13.551Z,6.61
2023-02-12T00:20:24.337Z,6.62
2023-02-12T00:20:35.389Z,6.61
2023-02-12T00:20:46.381Z,6.63
2023-02-12T00:20:57.153Z,6.63
2023-02-12T00:21:08.216Z,6.58
2023-02-12T00:21:19.191Z,6.59
2023-02-12T00:21:29.978Z,6.63
2023-02-12T00:21:41.004Z,6.62
2023-02-12T00:21:51.995Z,6.61
2023-02-12T00:22:02.763Z,6.65
2023-02-12T00:22:13.812Z,6.62
2023-02-12T00:22:24.821Z,6.59
2023-02-12T00:22:35.587Z,6.58
2023-02-12T00:22:46.624Z,6.63
2023-02-12T00:22:57.618Z,6.61
2023-02-12T00:23:08.398Z,6.61
2023-02-12T00:23:19.476Z,6.58
2023-02-12T00:23:30.457Z,6.61
2023-02-12T00:23:41.272Z,6.59
2023-02-12T00:23:52.330Z,6.62
2023-02-12T00:24:03.311Z,6.61
2023-02-12T00:24:14.087Z,6.61
2023-02-12T00:24:25.148Z,6.54
2023-02-12T00:24:36.115Z,6.62
2023-02-12T00:24:46.900Z,6.61
2023-02-12T00:24:57.949Z,6.59
2023-02-12T00:25:08.929Z,6.59
2023-02-12T00:25:19.699Z,6.59
2023-02-12T00:25:30.764Z,6.59
2023-02-12T00:25:41.728Z,6.56
2023-02-12T00:25:52.514Z,6.58
2023-02-12T00:26:03.557Z,6.59
2023-02-12T00:26:14.533Z,6.63
2023-02-12T00:26:25.332Z,6.58
2023-02-12T00:26:36.359Z,6.59
2023-02-12T00:26:47.349Z,6.61
2023-02-12T00:26:58.111Z,6.62
2023-02-12T00:27:10.171Z,6.53
2023-02-12T00:27:20.010Z,6.54
2023-02-12T00:27:30.768Z,6.62
2023-02-12T00:27:41.818Z,6.58
2023-02-12T00:27:52.793Z,6.59
2023-02-12T00:28:03.616Z,6.61
2023-02-12T00:28:14.717Z,6.53
2023-02-12T00:28:25.697Z,6.62
2023-02-12T00:28:36.557Z,6.58
2023-02-12T00:28:47.089Z,6.59
2023-02-12T00:28:58.076Z,6.61
2023-02-12T00:29:08.844Z,6.63
2023-02-12T00:29:19.902Z,6.59
2023-02-12T00:29:30.874Z,6.62
2023-02-12T00:29:41.642Z,6.62
2023-02-12T00:29:52.701Z,6.54
2023-02-12T00:30:03.680Z,6.61
2023-02-12T00:30:14.462Z,6.61
2023-02-12T00:30:25.546Z,6.62
2023-02-12T00:30:36.522Z,6.61
2023-02-12T00:30:47.421Z,6.61
2023-02-12T00:30:58.067Z,6.58
2023-02-12T00:31:09.159Z,6.62
2023-02-12T00:31:20.146Z,6.63
2023-02-12T00:31:30.695Z,6.61
2023-02-12T00:31:41.718Z,6.65
2023-02-12T00:31:52.528Z,6.61
2023-02-12T00:32:03.029Z,6.62
2023-02-12T00:32:13.986Z,6.62
2023-02-12T00:32:24.760Z,6.62
2023-02-12T00:32:35.810Z,6.59
2023-02-12T00:32:46.786Z,6.56
2023-02-12T00:32:57.566Z,6.59
2023-02-12T00:33:08.616Z,6.65
2023-02-12T00:33:19.590Z,6.63
2023-02-12T00:33:30.406Z,6.66
2023-02-12T00:33:40.912Z,6.56
2023-02-12T00:33:51.893Z,6.61
2023-02-12T00:34:02.703Z,6.61
2023-02-12T00:34:13.737Z,6.65
2023-02-12T00:34:24.742Z,6.58
2023-02-12T00:34:35.490Z,6.58
2023-02-12T00:34:46.550Z,6.63
2023-02-12T00:34:57.525Z,6.59
2023-02-12T00:35:08.302Z,6.61
2023-02-12T00:35:19.367Z,6.61
2023-02-12T00:35:30.330Z,6.65
2023-02-12T00:35:41.096Z,6.59
2023-02-12T00:35:52.393Z,6.59
2023-02-12T00:36:02.876Z,6.59
2023-02-12T00:36:13.642Z,6.62
2023-02-12T00:36:24.715Z,6.54
2023-02-12T00:36:35.693Z,6.58
2023-02-12T00:36:46.461Z,6.65
2023-02-12T00:36:57.530Z,6.62
2023-02-12T00:37:08.533Z,6.59
2023-02-12T00:37:19.308Z,6.58
2023-02-12T00:37:30.368Z,6.61
2023-02-12T00:37:41.351Z,6.58
2023-02-12T00:37:52.120Z,6.61
2023-02-12T00:38:03.178Z,6.62
2023-02-12T00:38:14.151Z,6.59
2023-02-12T00:38:24.916Z,6.62
2023-02-12T00:38:35.987Z,6.61
2023-02-12T00:38:46.957Z,6.61
2023-02-12T00:38:57.750Z,6.63
2023-02-12T00:39:08.800Z,6.59
2023-02-12T00:39:19.774Z,6.59
2023-02-12T00:39:30.562Z,6.59
2023-02-12T00:39:41.613Z,6.59
2023-02-12T00:39:52.585Z,6.59
2023-02-12T00:40:03.359Z,6.61
2023-02-12T00:40:14.406Z,6.59
2023-02-12T00:40:25.394Z,6.61
2023-02-12T00:40:36.174Z,6.63
2023-02-12T00:40:47.228Z,6.59
2023-02-12T00:40:58.203Z,6.63
2023-02-12T00:41:08.969Z,6.61
2023-02-12T00:41:20.029Z,6.56
2023-02-12T00:41:31.010Z,6.56
2023-02-12T00:41:41.772Z,6.62
2023-02-12T00:41:52.858Z,6.61
2023-02-12T00:42:03.834Z,6.59
2023-02-12T00:42:14.602Z,6.56
2023-02-12T00:42:25.653Z,6.61
2023-02-12T00:42:36.618Z,6.59
2023-02-12T00:42:47.407Z,6.61
2023-02-12T00:42:58.469Z,6.62
2023-02-12T00:43:09.445Z,6.58
2023-02-12T00:43:20.211Z,6.54
2023-02-12T00:43:31.264Z,6.62
2023-02-12T00:43:42.259Z,6.54
2023-02-12T00:43:53.051Z,6.61
2023-02-12T00:44:04.122Z,6.58
2023-02-12T00:44:15.103Z,6.59
2023-02-12T00:44:25.876Z,6.61
2023-02-12T00:44:36.935Z,6.58
2023-02-12T00:44:47.916Z,6.56
2023-02-12T00:44:58.715Z,6.56
2023-02-12T00:45:09.752Z,6.54
2023-02-12T00:45:20.730Z,6.58
2023-02-12T00:45:31.493Z,6.61
2023-02-12T00:45:42.544Z,6.56
2023-02-12T00:45:53.888Z,6.56
2023-02-12T00:46:04.297Z,6.59
2023-02-12T00:46:15.359Z,6.58
2023-02-12T00:46:26.368Z,6.56
2023-02-12T00:46:37.179Z,6.61
2023-02-12T00:46:47.751Z,6.61
2023-02-12T00:46:58.675Z,6.59
2023-02-12T00:47:09.454Z,6.56
2023-02-12T00:47:20.501Z,6.54
2023-02-12T00:47:31.486Z,6.61
2023-02-12T00:47:42.265Z,6.58
2023-02-12T00:47:53.312Z,6.58
2023-02-12T00:48:04.291Z,6.51
2023-02-12T00:48:15.057Z,6.58
2023-02-12T00:48:26.117Z,6.56
2023-02-12T00:48:37.095Z,6.59
2023-02-12T00:48:47.898Z,6.56
2023-02-12T00:48:58.428Z,6.53
2023-02-12T00:49:09.431Z,6.53
2023-02-12T00:49:20.215Z,6.61
2023-02-12T00:49:31.276Z,6.56
2023-02-12T00:49:42.266Z,6.58
2023-02-12T00:49:53.045Z,6.56
2023-02-12T00:50:04.083Z,6.54
2023-02-12T00:50:15.058Z,6.54
2023-02-12T00:50:25.826Z,6.58
2023-02-12T00:50:36.887Z,6.54
2023-02-12T00:50:47.869Z,6.54
2023-02-12T00:50:58.642Z,6.56
2023-02-12T00:51:09.692Z,6.50
2023-02-12T00:51:20.672Z,6.56
2023-02-12T00:51:31.456Z,6.54
2023-02-12T00:51:42.507Z,6.54
2023-02-12T00:51:53.478Z,6.56
2023-02-12T00:52:04.242Z,6.56
2023-02-12T00:52:15.294Z,6.58
2023-02-12T00:52:26.278Z,6.53
2023-02-12T00:52:37.061Z,6.56
2023-02-12T00:52:48.101Z,6.54
2023-02-12T00:52:59.084Z,6.53
2023-02-12T00:53:09.860Z,6.56
2023-02-12T00:53:20.916Z,6.54
2023-02-12T00:53:31.882Z,6.54
2023-02-12T00:53:42.669Z,6.58
2023-02-12T00:53:53.736Z,6.48
2023-02-12T00:54:04.708Z,6.50
2023-02-12T00:54:15.481Z,6.59
2023-02-12T00:54:26.561Z,6.56
2023-02-12T00:54:37.521Z,6.58
2023-02-12T00:54:48.306Z,6.58
2023-02-12T00:54:59.354Z,6.54
2023-02-12T00:55:10.338Z,6.51
2023-02-12T00:55:21.100Z,6.54
2023-02-12T00:55:32.160Z,6.56
2023-02-12T00:55:43.163Z,6.53
2023-02-12T00:55:54.512Z,6.58
2023-02-12T00:56:04.576Z,6.58
2023-02-12T00:56:15.550Z,6.53
2023-02-12T00:56:26.320Z,6.56
2023-02-12T00:56:37.392Z,6.58
2023-02-12T00:56:48.360Z,6.53
2023-02-12T00:56:59.155Z,6.61
2023-02-12T00:57:10.209Z,6.58
2023-02-12T00:57:21.183Z,6.54
2023-02-12T00:57:31.953Z,6.58
2023-02-12T00:57:43.010Z,6.48
2023-02-12T00:57:53.987Z,6.54
2023-02-12T00:58:04.745Z,6.53
2023-02-12T00:58:18.714Z,6.58
2023-02-12T00:58:26.633Z,6.58
2023-02-12T00:58:37.418Z,6.56
2023-02-12T00:58:48.469Z,6.53
2023-02-12T00:58:59.455Z,6.54
2023-02-12T00:59:10.249Z,6.51
2023-02-12T00:59:21.315Z,6.58
2023-02-12T00:59:32.299Z,6.51
2023-02-12T00:59:43.085Z,6.61
2023-02-12T00:59:53.629Z,6.53
2023-02-12T01:00:04.651Z,6.56
2023-02-12T01:00:15.375Z,6.54
2023-02-12T01:00:26.418Z,6.54
2023-02-12T01:00:37.384Z,6.56
2023-02-12T01:00:48.164Z,6.54
2023-02-12T01:00:59.229Z,6.62
2023-02-12T01:01:10.262Z,6.54
2023-02-12T01:01:21.077Z,6.59
2023-02-12T01:01:32.138Z,6.58
2023-02-12T01:01:43.126Z,6.58
2023-02-12T01:01:53.964Z,6.58
2023-02-12T01:02:04.433Z,6.58
2023-02-12T01:02:15.414Z,6.53
2023-02-12T01:02:26.201Z,6.58
2023-02-12T01:02:37.250Z,6.53
2023-02-12T01:02:48.236Z,6.54
2023-02-12T01:02:59.014Z,6.58
2023-02-12T01:03:10.074Z,6.54
2023-02-12T01:03:21.052Z,6.58
2023-02-12T01:03:31.827Z,6.59
2023-02-12T01:03:42.874Z,6.56
2023-02-12T01:03:53.846Z,6.58
2023-02-12T01:04:04.656Z,6.56
2023-02-12T01:04:15.157Z,6.50
2023-02-12T01:04:26.152Z,6.59
2023-02-12T01:04:37.042Z,6.56
2023-02-12T01:04:47.553Z,6.58
2023-02-12T01:04:58.656Z,6.59
2023-02-12T01:05:09.588Z,6.58
2023-02-12T01:05:20.182Z,6.56
2023-02-12T01:05:31.134Z,6.56
2023-02-12T01:05:41.896Z,6.59
2023-02-12T01:05:53.328Z,6.58
2023-02-12T01:06:03.864Z,6.53
2023-02-12T01:06:14.665Z,6.58
2023-02-12T01:06:25.698Z,6.58
2023-02-12T01:06:36.679Z,6.56
2023-02-12T01:06:47.436Z,6.58
2023-02-12T01:06:58.497Z,6.54
2023-02-12T01:07:09.484Z,6.53
2023-02-12T01:07:20.241Z,6.59
2023-02-12T01:07:31.307Z,6.54
2023-02-12T01:07:42.288Z,6.56
2023-02-12T01:07:53.056Z,6.59
2023-02-12T01:08:04.101Z,6.58
2023-02-12T01:08:15.077Z,6.50
2023-02-12T01:08:25.845Z,6.51
2023-02-12T01:08:36.902Z,6.58
2023-02-12T01:08:47.866Z,6.54
2023-02-12T01:08:58.646Z,6.56
2023-02-12T01:09:09.710Z,6.56
2023-02-12T01:09:20.708Z,6.53
2023-02-12T01:09:31.469Z,6.56
2023-02-12T01:09:42.527Z,6.53
2023-02-12T01:09:53.493Z,6.53
2023-02-12T01:10:04.258Z,6.56
2023-02-12T01:10:15.329Z,6.56
2023-02-12T01:10:26.299Z,6.53
2023-02-12T01:10:37.076Z,6.58
2023-02-12T01:10:48.125Z,6.54
2023-02-12T01:10:59.119Z,6.53
2023-02-12T01:11:09.881Z,6.53
2023-02-12T01:11:20.948Z,6.58
2023-02-12T01:11:31.909Z,6.56
2023-02-12T01:11:42.692Z,6.53
2023-02-12T01:11:53.728Z,6.58
2023-02-12T01:12:04.739Z,6.51
2023-02-12T01:12:15.484Z,6.56
2023-02-12T01:12:26.535Z,6.54
2023-02-12T01:12:37.512Z,6.51
2023-02-12T01:12:48.281Z,6.56
2023-02-12T01:12:59.327Z,6.53
2023-02-12T01:13:10.298Z,6.56
2023-02-12T01:13:21.074Z,6.54
2023-02-12T01:13:32.132Z,6.56
2023-02-12T01:13:43.094Z,6.53
2023-02-12T01:13:53.877Z,6.51
2023-02-12T01:14:04.917Z,6.53
2023-02-12T01:14:15.903Z,6.54
2023-02-12T01:14:26.677Z,6.56
2023-02-12T01:14:37.734Z,6.56
2023-02-12T01:14:48.748Z,6.53
2023-02-12T01:14:59.481Z,6.54
2023-02-12T01:15:10.559Z,6.54
2023-02-12T01:15:21.512Z,6.50
2023-02-12T01:15:32.286Z,6.53
2023-02-12T01:15:43.471Z,6.51
2023-02-12T01:15:54.449Z,6.53
2023-02-12T01:16:04.910Z,6.51
2023-02-12T01:16:16.010Z,6.51
2023-02-12T01:16:27.009Z,6.51
2023-02-12T01:16:37.808Z,6.58
2023-02-12T01:16:48.355Z,6.48
2023-02-12T01:16:59.332Z,6.54
2023-02-12T01:17:10.112Z,6.58
2023-02-12T01:17:21.164Z,6.51
2023-02-12T01:17:32.142Z,6.53
2023-02-12T01:17:42.941Z,6.54
2023-02-12T01:17:53.998Z,6.53
2023-02-12T01:18:04.994Z,6.53
2023-02-12T01:18:15.767Z,6.53
2023-02-12T01:18:26.842Z,6.53
2023-02-12T01:18:37.821Z,6.53
2023-02-12T01:18:48.591Z,6.56
2023-02-12T01:18:59.645Z,6.54
2023-02-12T01:19:10.631Z,6.54
2023-02-12T01:19:21.404Z,6.54
2023-02-12T01:19:32.464Z,6.50
2023-02-12T01:19:43.424Z,6.53
2023-02-12T01:19:54.205Z,6.50
2023-02-12T01:20:05.268Z,6.54
2023-02-12T01:20:16.266Z,6.54
2023-02-12T01:20:27.042Z,6.54
2023-02-12T01:20:38.105Z,6.54
2023-02-12T01:20:49.064Z,6.53
2023-02-12T01:20:59.849Z,6.59
2023-02-12T01:21:10.903Z,6.54
2023-02-12T01:21:21.862Z,6.54
2023-02-12T01:21:32.649Z,6.59
2023-02-12T01:21:43.694Z,6.51
2023-02-12T01:21:54.702Z,6.51
2023-02-12T01:22:05.492Z,6.56
2023-02-12T01:22:16.554Z,6.54
2023-02-12T01:22:27.541Z,6.53
2023-02-12T01:22:38.340Z,6.51
2023-02-12T01:22:49.380Z,6.54
2023-02-12T01:23:00.355Z,6.54
2023-02-12T01:23:11.124Z,6.54
2023-02-12T01:23:22.190Z,6.56
2023-02-12T01:23:33.151Z,6.48
2023-02-12T01:23:43.938Z,6.51
2023-02-12T01:23:54.988Z,6.48
2023-02-12T01:24:05.970Z,6.54
2023-02-12T01:24:16.746Z,6.53
2023-02-12T01:24:27.295Z,6.51
2023-02-12T01:24:38.286Z,6.58
2023-02-12T01:24:49.068Z,6.54
2023-02-12T01:25:00.143Z,6.51
2023-02-12T01:25:11.120Z,6.48
2023-02-12T01:25:21.904Z,6.51
2023-02-12T01:25:32.967Z,6.51
2023-02-12T01:25:43.933Z,6.51
2023-02-12T01:25:55.036Z,6.50
2023-02-12T01:26:05.716Z,6.53
2023-02-12T01:26:16.697Z,6.56
2023-02-12T01:26:27.469Z,6.51
2023-02-12T01:26:38.521Z,6.53
2023-02-12T01:26:49.503Z,6.53
2023-02-12T01:27:00.288Z,6.53
2023-02-12T01:27:11.348Z,6.48
2023-02-12T01:27:22.294Z,6.50
2023-02-12T01:27:33.080Z,6.50
2023-02-12T01:27:44.147Z,6.51
2023-02-12T01:27:55.125Z,6.51
2023-02-12T01:28:05.928Z,6.54
2023-02-12T01:28:16.984Z,6.50
2023-02-12T01:28:27.955Z,6.46
2023-02-12T01:28:38.701Z,6.53
2023-02-12T01:28:49.780Z,6.50
2023-02-12T01:29:00.772Z,6.47
2023-02-12T01:29:11.545Z,6.47
2023-02-12T01:29:22.604Z,6.47
2023-02-12T01:29:33.604Z,6.48
2023-02-12T01:29:44.378Z,6.53
2023-02-12T01:29:55.430Z,6.48
2023-02-12T01:30:06.425Z,6.48
2023-02-12T01:30:17.204Z,6.50
2023-02-12T01:30:28.255Z,6.48
2023-02-12T01:30:39.238Z,6.51
2023-02-12T01:30:50.105Z,6.50
2023-02-12T01:31:00.681Z,6.48
2023-02-12T01:31:11.790Z,6.48
2023-02-12T01:31:22.812Z,6.51
2023-02-12T01:31:33.453Z,6.50
2023-02-12T01:31:44.610Z,6.48
2023-02-12T01:31:55.494Z,6.50
2023-02-12T01:32:06.113Z,6.47
2023-02-12T01:32:16.566Z,6.47
2023-02-12T01:32:27.325Z,6.53
2023-02-12T01:32:38.390Z,6.47
2023-02-12T01:32:49.349Z,6.47
2023-02-12T01:33:00.120Z,6.48
2023-02-12T01:33:11.187Z,6.47
2023-02-12T01:33:22.162Z,6.48
2023-02-12T01:33:32.922Z,6.51
2023-02-12T01:33:44.014Z,6.50
2023-02-12T01:33:54.974Z,6.48
2023-02-12T01:34:05.730Z,6.48
2023-02-12T01:34:16.785Z,6.50
2023-02-12T01:34:27.752Z,6.47
2023-02-12T01:34:38.554Z,6.51
2023-02-12T01:34:49.616Z,6.48
2023-02-12T01:35:00.596Z,6.50
2023-02-12T01:35:11.404Z,6.50
2023-02-12T01:35:22.417Z,6.44
2023-02-12T01:35:33.388Z,6.44
2023-02-12T01:35:44.154Z,6.48
2023-02-12T01:35:55.546Z,6.47
2023-02-12T01:36:06.135Z,6.46
2023-02-12T01:36:16.912Z,6.50
2023-02-12T01:36:27.986Z,6.46
2023-02-12T01:36:39.003Z,6.46
2023-02-12T01:36:49.736Z,6.47
2023-02-12T01:37:00.785Z,6.44
2023-02-12T01:37:11.753Z,6.44
2023-02-12T01:37:22.527Z,6.53
2023-02-12T01:37:33.573Z,6.44
2023-02-12T01:37:44.543Z,6.51
2023-02-12T01:37:58.125Z,6.50
2023-02-12T01:38:06.145Z,6.46
2023-02-12T01:38:17.108Z,6.48
2023-02-12T01:38:27.877Z,6.48
2023-02-12T01:38:38.945Z,6.46
2023-02-12T01:38:49.900Z,6.41
2023-02-12T01:39:00.684Z,6.47
2023-02-12T01:39:11.745Z,6.41
2023-02-12T01:39:22.730Z,6.46
2023-02-12T01:39:33.513Z,6.47
2023-02-12T01:39:44.578Z,6.48
2023-02-12T01:39:55.541Z,6.47
2023-02-12T01:40:06.310Z,6.48
2023-02-12T01:40:17.380Z,6.48
2023-02-12T01:40:28.357Z,6.46
2023-02-12T01:40:39.132Z,6.48
2023-02-12T01:40:50.186Z,6.46
2023-02-12T01:41:01.176Z,6.48
2023-02-12T01:41:11.971Z,6.48
2023-02-12T01:41:23.009Z,6.48
2023-02-12T01:41:34.009Z,6.44
2023-02-12T01:41:44.799Z,6.46
2023-02-12T01:41:55.853Z,6.46
2023-02-12T01:42:06.830Z,6.48
2023-02-12T01:42:17.632Z,6.51
2023-02-12T01:42:28.669Z,6.43
2023-02-12T01:42:39.677Z,6.44
2023-02-12T01:42:50.447Z,6.46
2023-02-12T01:43:01.494Z,6.44
2023-02-12T01:43:12.484Z,6.47
2023-02-12T01:43:23.263Z,6.43
2023-02-12T01:43:34.327Z,6.44
2023-02-12T01:43:45.328Z,6.46
2023-02-12T01:43:56.096Z,6.46
2023-02-12T01:44:07.140Z,6.46
2023-02-12T01:44:18.135Z,6.44
2023-02-12T01:44:28.905Z,6.44
2023-02-12T01:44:39.960Z,6.46
2023-02-12T01:44:50.957Z,6.44
2023-02-12T01:45:01.727Z,6.46
2023-02-12T01:45:12.814Z,6.43
2023-02-12T01:45:23.763Z,6.46
2023-02-12T01:45:34.554Z,6.44
2023-02-12T01:45:45.604Z,6.43
2023-02-12T01:45:56.942Z,6.43
2023-02-12T01:46:07.329Z,6.41
2023-02-12T01:46:17.917Z,6.44
2023-02-12T01:46:28.963Z,6.43
2023-02-12T01:46:39.796Z,6.43
2023-02-12T01:46:50.353Z,6.44
2023-02-12T01:47:01.320Z,6.44
2023-02-12T01:47:12.093Z,6.50
2023-02-12T01:47:23.159Z,6.43
2023-02-12T01:47:34.128Z,6.44
2023-02-12T01:47:44.900Z,6.46
2023-02-12T01:47:55.952Z,6.46
2023-02-12T01:48:06.915Z,6.46
2023-02-12T01:48:17.690Z,6.47
2023-02-12T01:48:28.746Z,6.44
2023-02-12T01:48:39.721Z,6.40
2023-02-12T01:48:50.504Z,6.46
2023-02-12T01:49:01.540Z,6.43
2023-02-12T01:49:12.534Z,6.43
2023-02-12T01:49:23.306Z,6.43
2023-02-12T01:49:34.372Z,6.44
2023-02-12T01:49:45.330Z,6.46
2023-02-12T01:49:56.130Z,6.46
2023-02-12T01:50:07.189Z,6.44
2023-02-12T01:50:18.165Z,6.44
2023-02-12T01:50:28.950Z,6.47
2023-02-12T01:50:39.997Z,6.46
2023-02-12T01:50:50.971Z,6.41
2023-02-12T01:51:01.759Z,6.46
2023-02-12T01:51:12.799Z,6.41
2023-02-12T01:51:23.792Z,6.47
2023-02-12T01:51:34.552Z,6.43
2023-02-12T01:51:45.599Z,6.41
2023-02-12T01:51:56.587Z,6.44
2023-02-12T01:52:07.395Z,6.36
2023-02-12T01:52:18.438Z,6.46
2023-02-12T01:52:29.413Z,6.44
2023-02-12T01:52:40.185Z,6.47
2023-02-12T01:52:51.231Z,6.44
2023-02-12T01:53:02.213Z,6.46
2023-02-12T01:53:12.986Z,6.41
2023-02-12T01:53:24.050Z,6.43
2023-02-12T01:53:35.048Z,6.40
2023-02-12T01:53:45.834Z,6.47
2023-02-12T01:53:56.904Z,6.43
2023-02-12T01:54:07.886Z,6.43
2023-02-12T01:54:18.668Z,6.48
2023-02-12T01:54:29.730Z,6.47
2023-02-12T01:54:40.701Z,6.46
2023-02-12T01:54:51.495Z,6.46
2023-02-12T01:55:02.532Z,6.46
2023-02-12T01:55:13.502Z,6.51
2023-02-12T01:55:24.289Z,6.48
2023-02-12T01:55:35.344Z,6.50
2023-02-12T01:55:46.318Z,6.47
2023-02-12T01:55:57.413Z,6.41
2023-02-12T01:56:08.039Z,6.44
2023-02-12T01:56:19.015Z,6.44
2023-02-12T01:56:29.788Z,6.48
2023-02-12T01:56:40.851Z,6.44
2023-02-12T01:56:51.825Z,6.44
2023-02-12T01:57:02.586Z,6.46
2023-02-12T01:57:13.646Z,6.43
2023-02-12T01:57:24.631Z,6.43
2023-02-12T01:57:35.375Z,6.46
2023-02-12T01:57:46.431Z,6.47
2023-02-12T01:57:57.436Z,6.48
2023-02-12T01:58:08.217Z,6.47
2023-02-12T01:58:19.277Z,6.43
2023-02-12T01:58:30.253Z,6.46
2023-02-12T01:58:41.015Z,6.48
2023-02-12T01:58:52.065Z,6.43
2023-02-12T01:59:03.031Z,6.40
2023-02-12T01:59:13.807Z,6.47
2023-02-12T01:59:24.869Z,6.46
2023-02-12T01:59:35.834Z,6.43
2023-02-12T01:59:46.608Z,6.46
2023-02-12T01:59:57.668Z,6.41
2023-02-12T02:00:08.672Z,6.48
2023-02-12T02:00:19.438Z,6.46
2023-02-12T02:00:30.492Z,6.38
2023-02-12T02:00:41.494Z,6.46
2023-02-12T02:00:52.262Z,6.44
2023-02-12T02:01:03.336Z,6.47
2023-02-12T02:01:14.350Z,6.47
2023-02-12T02:01:25.211Z,6.51
2023-02-12T02:01:35.746Z,6.44
2023-02-12T02:01:46.806Z,6.44
2023-02-12T02:01:57.627Z,6.44
2023-02-12T02:02:08.172Z,6.50
2023-02-12T02:02:19.107Z,6.44
2023-02-12T02:02:29.880Z,6.50
2023-02-12T02:02:40.946Z,6.48
2023-02-12T02:02:51.964Z,6.47
2023-02-12T02:03:02.785Z,6.48
2023-02-12T02:03:13.837Z,6.46
2023-02-12T02:03:24.841Z,6.50
2023-02-12T02:03:35.760Z,6.44
2023-02-12T02:03:46.259Z,6.46
2023-02-12T02:03:57.223Z,6.47
2023-02-12T02:04:07.990Z,6.47
2023-02-12T02:04:19.055Z,6.43
2023-02-12T02:04:30.014Z,6.46
2023-02-12T02:04:40.774Z,6.47
2023-02-12T02:04:51.838Z,6.43
2023-02-12T02:05:02.832Z,6.46
2023-02-12T02:05:13.592Z,6.46
2023-02-12T02:05:24.653Z,6.47
2023-02-12T02:05:35.643Z,6.46
2023-02-12T02:05:46.433Z,6.48
2023-02-12T02:05:57.858Z,6.48
2023-02-12T02:06:08.450Z,6.46
2023-02-12T02:06:19.224Z,6.46
2023-02-12T02:06:30.272Z,6.40
2023-02-12T02:06:41.244Z,6.46
2023-02-12T02:06:52.032Z,6.47
2023-02-12T02:07:03.100Z,6.46
2023-02-12T02:07:14.070Z,6.50
2023-02-12T02:07:24.842Z,6.47
2023-02-12T02:07:35.891Z,6.43
2023-02-12T02:07:46.872Z,6.47
2023-02-12T02:07:57.687Z,6.47
2023-02-12T02:08:08.732Z,6.43
2023-02-12T02:08:19.736Z,6.51
2023-02-12T02:08:30.508Z,6.48
2023-02-12T02:08:41.561Z,6.44
2023-02-12T02:08:52.558Z,6.47
2023-02-12T02:09:03.323Z,6.46
2023-02-12T02:09:14.382Z,6.48
2023-02-12T02:09:25.345Z,6.46
2023-02-12T02:09:36.115Z,6.46
2023-02-12T02:09:47.160Z,6.44
2023-02-12T02:09:58.135Z,6.44
2023-02-12T02:10:08.916Z,6.44
2023-02-12T02:10:19.970Z,6.48
2023-02-12T02:10:30.944Z,6.44
2023-02-12T02:10:41.714Z,6.46
2023-02-12T02:10:52.789Z,6.40
2023-02-12T02:11:03.772Z,6.46
2023-02-12T02:11:14.551Z,6.47
2023-02-12T02:11:25.605Z,6.43
2023-02-12T02:11:36.571Z,6.44
2023-02-12T02:11:47.357Z,6.46
2023-02-12T02:11:58.393Z,6.47
2023-02-12T02:12:09.370Z,6.47
2023-02-12T02:12:20.141Z,6.48
2023-02-12T02:12:31.205Z,6.43
2023-02-12T02:12:42.169Z,6.43
2023-02-12T02:12:52.936Z,6.46
2023-02-12T02:13:04.000Z,6.43
2023-02-12T02:13:14.972Z,6.41
2023-02-12T02:13:25.737Z,6.50
2023-02-12T02:13:36.787Z,6.44
2023-02-12T02:13:47.812Z,6.46
2023-02-12T02:13:58.597Z,6.43
2023-02-12T02:14:09.665Z,6.41
2023-02-12T02:14:20.624Z,6.43
2023-02-12T02:14:31.390Z,6.46
2023-02-12T02:14:42.450Z,6.41
2023-02-12T02:14:53.418Z,6.43
2023-02-12T02:15:04.207Z,6.41
2023-02-12T02:15:15.255Z,6.41
2023-02-12T02:15:26.241Z,6.43
2023-02-12T02:15:37.007Z,6.44
2023-02-12T02:15:48.127Z,6.44
2023-02-12T02:15:59.434Z,6.44
2023-02-12T02:16:09.726Z,6.41
2023-02-12T02:16:20.228Z,6.44
2023-02-12T02:16:31.271Z,6.46
2023-02-12T02:16:42.024Z,6.48
2023-02-12T02:16:53.071Z,6.43
2023-02-12T02:17:04.078Z,6.41
2023-02-12T02:17:14.860Z,6.47
2023-02-12T02:17:25.940Z,6.44
2023-02-12T02:17:36.928Z,6.47
2023-02-12T02:17:47.714Z,6.40
2023-02-12T02:17:58.764Z,6.44
2023-02-12T02:18:09.739Z,6.46
2023-02-12T02:18:20.517Z,6.46
2023-02-12T02:18:31.576Z,6.43
2023-02-12T02:18:42.559Z,6.48
2023-02-12T02:18:53.348Z,6.46
2023-02-12T02:19:04.396Z,6.46
2023-02-12T02:19:15.370Z,6.46
2023-02-12T02:19:26.165Z,6.44
2023-02-12T02:19:37.219Z,6.41
2023-02-12T02:19:48.190Z,6.41
2023-02-12T02:19:59.005Z,6.47
2023-02-12T02:20:09.550Z,6.41
2023-02-12T02:20:20.499Z,6.44
2023-02-12T02:20:31.289Z,6.44
2023-02-12T02:20:42.348Z,6.41
2023-02-12T02:20:53.328Z,6.43
2023-02-12T02:21:04.117Z,6.47
2023-02-12T02:21:15.149Z,6.43
2023-02-12T02:21:26.130Z,6.46
2023-02-12T02:21:36.922Z,6.44
2023-02-12T02:21:47.988Z,6.44
2023-02-12T02:21:58.954Z,6.44
2023-02-12T02:22:09.718Z,6.46
2023-02-12T02:22:20.796Z,6.44
2023-02-12T02:22:31.775Z,6.46
2023-02-12T02:22:42.568Z,6.44
2023-02-12T02:22:53.120Z,6.46
2023-02-12T02:23:04.088Z,6.40
2023-02-12T02:23:14.873Z,6.47
2023-02-12T02:23:25.923Z,6.46
2023-02-12T02:23:36.907Z,6.43
2023-02-12T02:23:47.653Z,6.46
2023-02-12T02:23:58.717Z,6.40
2023-02-12T02:24:09.704Z,6.44
2023-02-12T02:24:20.465Z,6.46
2023-02-12T02:24:31.527Z,6.41
2023-02-12T02:24:42.517Z,6.43
2023-02-12T02:24:53.300Z,6.46
2023-02-12T02:25:04.356Z,6.43
2023-02-12T02:25:15.319Z,6.41
2023-02-12T02:25:26.104Z,6.43